Latest Coastal Weather Observations for Roebourne Airport

IDW60701

Issued at 12:55 pm WST Friday 31 October 2014 (issued every 10 minutes, with the page automatically refreshed every 10 minutes)

About coastal observations | Map of coastal stations | Coastal observations for WA | Marine services | Other Formats
Station Details ID: 004090 Name: ROEBOURNE AERO Lat: -20.76 Lon: 117.16 Height: 10.7 m
Data from the previous 72 hours. | See also: Recent months at Roebourne Airport
Date/Time
WST
Temp

°C
Wind Pressure Rain
since 9am
mm
Weather Cloud Vis
km
Sea
Height
m
Swell
Dir
 
Speed
knots
Gust
knots
hPa Trend Height
m
Period
s
Dir
31/12:35pm 41.7 SW 21 31 1007.9 - 0.0 - - - - - - -
31/12:34pm 41.1 SW 21 28 1007.9 - 0.0 - - - - - - -
31/12:30pm 41.7 W 22 27 1007.8 - 0.0 - - - - - - -
31/12:29pm 41.4 W 21 26 1007.8 - 0.0 - - - - - - -
31/12:00pm 41.5 SW 20 33 1008.2 - 0.0 - - - - - - -
31/11:30am 40.6 WSW 20 31 1008.6 - 0.0 - - - - - - -
31/11:23am 40.5 WSW 19 31 1008.6 - 0.0 - - - - - - -
31/11:00am 40.1 WSW 20 29 1008.8 - 0.0 - - - - - - -
31/10:57am 40.2 WSW 19 29 1008.9 - 0.0 - - - - - - -
31/10:30am 39.5 SW 20 26 1009.2 - 0.0 - - - - - - -
31/10:00am 39.4 SW 16 24 1009.5 - 0.0 - - - - - - -
31/09:30am 36.9 SW 14 20 1009.7 - 0.0 - - - - - - -
31/09:00am 35.6 SW 14 19 1010.0 - 0.0 - - - - - - -
31/08:30am 34.7 SW 13 18 1010.0 - 0.0 - - - - - - -
31/08:00am 32.9 SW 15 19 1009.8 - 0.0 - - - - - - -
31/07:30am 30.9 SW 15 19 1009.7 - 0.0 - - - - - - -
31/07:00am 29.4 SW 13 16 1009.6 - 0.0 - - - - - - -
31/06:30am 27.7 SW 12 14 1009.5 - 0.0 - - - - - - -
31/06:00am 27.2 SW 13 18 1009.3 - 0.0 - - - - - - -
31/05:30am 26.8 SW 11 14 1009.1 - 0.0 - - - - - - -
31/05:00am 27.6 SW 10 13 1008.7 - 0.0 - - - - - - -
31/04:30am 27.8 SW 11 14 1008.5 - 0.0 - - - - - - -
31/04:00am 28.1 WSW 10 14 1008.3 - 0.0 - - - - - - -
31/03:30am 28.3 WSW 10 13 1008.2 - 0.0 - - - - - - -
31/03:00am 28.9 WSW 11 15 1008.2 - 0.0 - - - - - - -
31/02:30am 29.3 WSW 10 13 1008.1 - 0.0 - - - - - - -
31/02:00am 29.8 WSW 12 17 1008.1 - 0.0 - - - - - - -
31/01:30am 30.2 SW 12 17 1008.2 - 0.0 - - - - - - -
31/01:00am 30.6 WSW 13 16 1008.4 - 0.0 - - - - - - -
31/12:30am 30.6 WSW 12 15 1008.6 - 0.0 - - - - - - -
31/12:00am 30.6 W 12 14 1008.8 - 0.0 - - - - - - -
 
Date/Time
WST
Temp

°C
Wind Pressure Rain
since 9am
mm
Weather Cloud Vis
km
Sea
Height
m
Swell
Dir
 
Speed
knots
Gust
knots
hPa Trend Height
m
Period
s
Dir
30/11:30pm 30.9 WSW 12 15 1009.1 - 0.0 - - - - - - -
30/11:00pm 31.2 WSW 12 15 1009.4 - 0.0 - - - - - - -
30/10:30pm 31.1 WSW 11 15 1009.6 - 0.0 - - - - - - -
30/10:00pm 30.7 W 12 15 1009.8 - 0.0 - - - - - - -
30/09:30pm 30.8 W 12 14 1009.7 - 0.0 - - - - - - -
30/09:00pm 31.2 W 11 15 1009.5 - 0.0 - - - - - - -
30/08:30pm 31.2 W 12 15 1009.4 - 0.0 - - - - - - -
30/08:00pm 31.4 W 13 17 1009.1 - 0.0 - - - - - - -
30/07:30pm 32.1 W 14 17 1008.8 - 0.0 - - - - - - -
30/07:00pm 32.7 WNW 12 16 1008.4 - 0.0 - - - - - - -
30/06:30pm 32.8 WNW 12 16 1008.0 - 0.0 - - - - - - -
30/06:00pm 34.6 WNW 13 17 1007.8 - 0.0 - - - - - - -
30/05:30pm 35.6 WNW 17 21 1007.4 - 0.0 - - - - - - -
30/05:00pm 36.7 WNW 19 23 1007.2 - 0.0 - - - - - - -
30/04:30pm 38.0 WNW 17 22 1007.0 - 0.0 - - - - - - -
30/04:00pm 38.9 WNW 18 23 1007.0 - 0.0 - - - - - - -
30/03:30pm 39.3 WNW 18 24 1007.0 - 0.0 - - - - - - -
30/03:00pm 39.9 WNW 18 23 1007.2 - 0.0 - - - - - - -
30/02:30pm 39.8 WNW 18 24 1007.4 - 0.0 - - - - - - -
30/02:00pm 39.4 WNW 17 20 1007.7 - 0.0 - - - - - - -
30/01:30pm 40.5 NNW 15 19 1008.0 - 0.0 - - - - - - -
30/01:00pm 39.6 NW 15 19 1008.2 - 0.0 - - - - - - -
30/12:30pm 40.8 NNW 15 19 1008.5 - 0.0 - - - - - - -
30/12:00pm 40.9 N 7 10 1008.7 - 0.0 - - - - - - -
30/11:30am 41.4 WSW 4 10 1009.2 - 0.0 - - - - - - -
30/11:00am 40.3 S 4 9 1009.6 - 0.0 - - - - - - -
30/10:30am 40.8 SSW 11 15 1010.0 - 0.0 - - - - - - -
30/10:00am 38.9 SE 7 11 1010.3 - 0.0 - - - - - - -
30/09:30am 38.3 SSE 6 10 1010.8 - 0.0 - - - - - - -
30/09:00am 37.7 SSE 7 10 1011.0 - 0.0 - - - - - - -
30/08:30am 36.0 SSE 6 10 1011.1 - 0.0 - - - - - - -
30/08:00am 34.1 S 8 10 1010.9 - 0.0 - - - - - - -
30/07:30am 31.7 SSW 5 6 1010.8 - 0.0 - - - - - - -
30/07:00am 30.0 SSW 6 7 1010.7 - 0.0 - - - - - - -
30/06:30am 25.1 WSW 2 5 1010.6 - 0.0 - - - - - - -
30/06:00am 22.9 CALM 0 3 1010.4 - 0.0 - - - - - - -
30/05:30am 23.7 WNW 4 5 1009.9 - 0.0 - - - - - - -
30/05:00am 23.4 W 5 6 1009.6 - 0.0 - - - - - - -
30/04:30am 23.6 WNW 5 6 1009.5 - 0.0 - - - - - - -
30/04:00am 24.2 WNW 5 6 1009.3 - 0.0 - - - - - - -
30/03:30am 24.6 W 4 5 1009.2 - 0.0 - - - - - - -
30/03:00am 24.5 WNW 4 5 1009.1 - 0.0 - - - - - - -
30/02:30am 24.6 ENE 1 3 1009.0 - 0.0 - - - - - - -
30/02:00am 27.2 SW 7 9 1009.2 - 0.0 - - - - - - -
30/01:30am 27.9 WSW 10 13 1009.2 - 0.0 - - - - - - -
30/01:00am 28.1 WSW 9 13 1009.3 - 0.0 - - - - - - -
30/12:30am 28.1 WSW 11 12 1009.5 - 0.0 - - - - - - -
30/12:00am 27.1 W 8 9 1010.0 - 0.0 - - - - - - -
 
Date/Time
WST
Temp

°C
Wind Pressure Rain
since 9am
mm
Weather Cloud Vis
km
Sea
Height
m
Swell
Dir
 
Speed
knots
Gust
knots
hPa Trend Height
m
Period
s
Dir
29/11:30pm 27.1 WNW 9 11 1010.3 - 0.0 - - - - - - -
29/11:00pm 26.9 W 4 6 1010.6 - 0.0 - - - - - - -
29/10:30pm 27.4 W 3 5 1010.8 - 0.0 - - - - - - -
29/10:00pm 28.2 W 8 11 1010.7 - 0.0 - - - - - - -
29/09:30pm 28.6 W 10 13 1010.7 - 0.0 - - - - - - -
29/09:00pm 28.9 W 11 14 1010.7 - 0.0 - - - - - - -
29/08:30pm 29.5 W 11 13 1010.6 - 0.0 - - - - - - -
29/08:00pm 29.5 WNW 14 17 1010.3 - 0.0 - - - - - - -
29/07:30pm 29.7 WNW 13 17 1010.0 - 0.0 - - - - - - -
29/07:00pm 30.4 WNW 14 18 1009.7 - 0.0 - - - - - - -
29/06:30pm 31.0 W 15 18 1009.5 - 0.0 - - - - - - -
29/06:00pm 32.6 WNW 17 21 1009.2 - 0.0 - - - - - - -
29/05:30pm 34.7 WNW 17 22 1009.1 - 0.0 - - - - - - -
29/05:00pm 35.7 WNW 17 21 1009.0 - 0.0 - - - - - - -
29/04:30pm 36.4 WNW 17 21 1008.8 - 0.0 - - - - - - -
29/04:00pm 36.9 WNW 17 21 1008.8 - 0.0 - - - - - - -
29/03:30pm 37.5 NW 16 21 1008.8 - 0.0 - - - - - - -
29/03:00pm 37.1 NW 16 20 1009.0 - 0.0 - - - - - - -
29/02:30pm 37.8 NNW 15 19 1009.0 - 0.0 - - - - - - -
29/02:00pm 38.9 NW 14 20 1009.2 - 0.0 - - - - - - -
29/01:30pm 39.3 NW 13 19 1009.4 - 0.0 - - - - - - -
29/01:00pm 38.3 NW 11 16 1009.8 - 0.0 - - - - - - -
29/12:30pm 38.8 NNW 14 18 1010.2 - 0.0 - - - - - - -
29/12:00pm 37.0 N 11 15 1010.7 - 0.0 - - - - - - -
29/11:30am 35.0 N 8 13 1011.0 - 0.0 - - - - - - -
29/11:00am 34.8 N 9 13 1011.4 - 0.0 - - - - - - -
29/10:30am 35.3 NE 4 9 1011.7 - 0.0 - - - - - - -
29/10:00am 33.0 W 4 7 1011.8 - 0.0 - - - - - - -
29/09:30am 31.5 WNW 4 6 1012.1 - 0.0 - - - - - - -
29/09:00am 30.4 NNE 4 7 1012.5 - 0.0 - - - - - - -
29/08:30am 29.4 ESE 2 6 1012.5 - 0.0 - - - - - - -
29/08:00am 28.2 E 1 5 1012.3 - 0.0 - - - - - - -
29/07:30am 26.8 E 5 7 1012.1 - 0.0 - - - - - - -
29/07:00am 25.8 E 4 5 1012.0 - 0.0 - - - - - - -
29/06:30am 23.0 ESE 2 4 1011.7 - 0.0 - - - - - - -
29/06:00am 21.4 S 5 6 1011.8 - 0.0 - - - - - - -
29/05:30am 20.7 SSW 4 5 1011.3 - 0.0 - - - - - - -
29/05:00am 21.7 SSW 4 4 1011.2 - 0.0 - - - - - - -
29/04:30am 21.5 WSW 1 4 1011.0 - 0.0 - - - - - - -
29/04:00am 22.4 SSW 4 5 1010.8 - 0.0 - - - - - - -
29/03:30am 22.8 NNE 1 3 1010.9 - 0.0 - - - - - - -
29/03:00am 21.8 E 7 9 1011.0 - 0.0 - - - - - - -
29/02:30am 21.0 CALM 0 0 1010.5 - 0.0 - - - - - - -
29/02:00am 21.5 W 1 3 1010.3 - 0.0 - - - - - - -
29/01:30am 22.4 WSW 4 5 1010.4 - 0.0 - - - - - - -
29/01:00am 22.8 WSW 4 4 1010.5 - 0.0 - - - - - - -
29/12:30am 22.5 CALM 0 0 1010.6 - 0.0 - - - - - - -
29/12:00am 23.5 WSW 4 4 1010.9 - 0.0 - - - - - - -
 
Date/Time
WST
Temp

°C
Wind Pressure Rain
since 9am
mm
Weather Cloud Vis
km
Sea
Height
m
Swell
Dir
 
Speed
knots
Gust
knots
hPa Trend Height
m
Period
s
Dir
28/11:30pm 23.4 NNW 3 4 1010.9 - 0.0 - - - - - - -
28/11:00pm 23.2 N 4 5 1011.1 - 0.0 - - - - - - -
28/10:30pm 24.1 NNE 2 3 1011.0 - 0.0 - - - - - - -
28/10:00pm 23.9 NE 4 5 1011.0 - 0.0 - - - - - - -
28/09:30pm 24.1 ENE 4 5 1011.0 - 0.0 - - - - - - -
28/09:00pm 24.6 NNW 1 3 1010.9 - 0.0 - - - - - - -
28/08:30pm 25.7 NW 4 4 1010.7 - 0.0 - - - - - - -
28/08:00pm 26.2 NW 5 7 1010.5 - 0.0 - - - - - - -
28/07:30pm 26.2 NW 4 6 1010.3 - 0.0 - - - - - - -
28/07:00pm 26.6 NNW 6 7 1009.9 - 0.0 - - - - - - -
28/06:30pm 26.9 N 8 11 1009.7 - 0.0 - - - - - - -
28/06:00pm 27.6 N 10 13 1009.4 - 0.0 - - - - - - -
28/05:30pm 28.8 N 12 14 1008.9 - 0.0 - - - - - - -
28/05:00pm 29.4 N 13 16 1008.6 - 0.0 - - - - - - -
28/04:30pm 29.7 NNE 15 19 1008.4 - 0.0 - - - - - - -
28/04:00pm 29.5 NNE 15 18 1008.3 - 0.0 - - - - - - -
28/03:30pm 29.8 NE 16 19 1008.3 - 0.0 - - - - - - -
28/03:00pm 32.2 NNE 13 17 1008.3 - 0.0 - - - - - - -
28/02:30pm 33.3 NNE 14 16 1008.1 - 0.0 - - - - - - -
28/02:00pm 34.2 NNE 13 16 1008.4 - 0.0 - - - - - - -
28/01:30pm 34.5 NNE 15 19 1008.6 - 0.0 - - - - - - -
28/01:00pm 33.2 NNE 16 20 1008.9 - 0.0 - - - - - - -

Other Formats:

Comma delimited format used in spreadsheet applications
http://www.bom.gov.au/fwo/IDW60701/IDW60701.94308.axf

JavaScript Object Notation format (JSON) in row-major order
http://www.bom.gov.au/fwo/IDW60701/IDW60701.94308.json